Time;durP1;ratioP1;P1;durP2;ratioP2;P2;SDS_P1;SDS_P2;PMS_P1;PMS_P2;Temp;Humidity;BMP_temperature;BMP_pressure;BME280_temperature;BME280_humidity;BME280_pressure;Samples;Min_cycle;Max_cycle;Signal;HPM_P1;HPM_P2
2023/03/05 00:00:31;;;;;;;10.88;3.13;;;7.20;99.90;;;;;;2029411;29;20389;-72
2023/03/05 00:01:33;;;;;;;14.13;3.90;;;7.20;99.90;;;;;;2036689;29;20143;-72
2023/03/05 00:02:34;;;;;;;16.33;4.18;;;7.20;99.90;;;;;;2042274;28;20027;-72
2023/03/05 00:03:34;;;;;;;12.18;3.67;;;7.20;99.90;;;;;;2037993;29;20036;-72
2023/03/05 00:04:35;;;;;;;15.60;5.18;;;7.20;99.90;;;;;;2037887;29;20501;-72
2023/03/05 00:05:36;;;;;;;16.15;4.10;;;7.10;99.90;;;;;;2029146;29;20032;-72
2023/03/05 00:06:36;;;;;;;14.70;3.78;;;7.20;99.90;;;;;;2029194;29;20051;-72
2023/03/05 00:07:37;;;;;;;12.25;3.28;;;7.10;99.90;;;;;;2038233;29;20054;-72
2023/03/05 00:08:38;;;;;;;12.10;3.88;;;7.10;99.90;;;;;;2038957;29;20015;-72
2023/03/05 00:09:39;;;;;;;9.38;3.70;;;7.10;99.90;;;;;;2038639;29;20706;-72
2023/03/05 00:10:39;;;;;;;12.50;3.65;;;7.10;99.90;;;;;;2036318;29;20390;-72
2023/03/05 00:11:40;;;;;;;10.90;3.90;;;7.10;99.90;;;;;;2037448;29;20027;-72
2023/03/05 00:12:40;;;;;;;15.90;3.90;;;7.10;99.90;;;;;;2037288;29;20033;-72
2023/03/05 00:13:41;;;;;;;15.32;3.95;;;7.10;99.90;;;;;;2037344;29;20027;-72
2023/03/05 00:14:41;;;;;;;12.73;3.70;;;7.10;99.90;;;;;;2029910;29;20123;-72
2023/03/05 00:15:42;;;;;;;14.57;4.10;;;7.10;99.90;;;;;;2029556;29;20135;-72
2023/03/05 00:16:43;;;;;;;11.15;3.83;;;7.10;99.90;;;;;;2037014;29;20766;-72
2023/03/05 00:17:43;;;;;;;12.27;3.88;;;7.20;99.90;;;;;;2036683;29;20060;-72
2023/03/05 00:18:45;;;;;;;14.43;3.80;;;7.10;99.90;;;;;;2036960;29;20032;-72
2023/03/05 00:19:45;;;;;;;8.80;3.53;;;7.10;99.90;;;;;;2036097;29;20078;-72
2023/03/05 00:20:46;;;;;;;13.68;4.32;;;7.10;99.90;;;;;;2036892;29;20036;-71
2023/03/05 00:21:46;;;;;;;11.13;3.85;;;7.10;99.90;;;;;;2036246;29;20561;-71
2023/03/05 00:22:47;;;;;;;14.65;4.22;;;7.10;99.90;;;;;;2036561;29;20106;-71
2023/03/05 00:23:51;;;;;;;11.20;3.78;;;7.10;99.90;;;;;;2036632;29;20039;-71
2023/03/05 00:24:52;;;;;;;13.32;4.13;;;7.10;99.90;;;;;;2044056;28;20042;-71
2023/03/05 00:25:53;;;;;;;8.55;3.70;;;7.10;99.90;;;;;;2044754;28;20107;-72
2023/03/05 00:26:54;;;;;;;17.45;5.13;;;7.10;99.90;;;;;;2038133;29;20557;-72
2023/03/05 00:27:55;;;;;;;12.18;4.55;;;7.00;99.90;;;;;;2037845;29;20130;-72
2023/03/05 00:28:56;;;;;;;14.50;4.03;;;7.00;99.90;;;;;;2038170;29;20053;-72
2023/03/05 00:29:57;;;;;;;10.90;4.25;;;7.00;99.90;;;;;;2036166;29;20028;-72
2023/03/05 00:31:01;;;;;;;12.50;4.43;;;7.00;99.90;;;;;;2036403;29;20030;-72
2023/03/05 00:32:02;;;;;;;13.73;4.60;;;7.00;99.90;;;;;;2037471;29;20027;-71
2023/03/05 00:33:02;;;;;;;19.02;4.40;;;7.00;99.90;;;;;;2035260;29;20157;-71
2023/03/05 00:34:07;;;;;;;14.48;4.82;;;7.00;99.90;;;;;;2036827;29;20079;-72
2023/03/05 00:35:08;;;;;;;14.52;4.63;;;7.00;99.90;;;;;;2036892;29;20020;-72
2023/03/05 00:36:09;;;;;;;12.60;4.30;;;7.00;99.90;;;;;;2037293;29;21112;-72
2023/03/05 00:37:09;;;;;;;13.63;4.40;;;7.00;99.90;;;;;;2036875;29;20024;-72
2023/03/05 00:38:11;;;;;;;14.55;4.65;;;7.00;99.90;;;;;;2035975;29;20058;-71
2023/03/05 00:39:13;;;;;;;13.35;4.28;;;7.00;99.90;;;;;;2038157;29;20027;-71
2023/03/05 00:40:14;;;;;;;10.15;4.57;;;7.00;99.90;;;;;;2034077;29;20028;-71
2023/03/05 00:41:15;;;;;;;18.67;4.78;;;7.00;99.90;;;;;;2037785;29;20023;-71
2023/03/05 00:42:15;;;;;;;11.10;3.92;;;7.00;99.90;;;;;;2034753;29;20107;-71
2023/03/05 00:43:16;;;;;;;10.27;4.15;;;7.00;99.90;;;;;;2037625;29;20075;-71
2023/03/05 00:44:16;;;;;;;11.07;3.45;;;7.00;99.90;;;;;;2036974;29;20055;-71
2023/03/05 00:45:17;;;;;;;13.60;4.65;;;7.00;99.90;;;;;;2035541;29;20837;-72
2023/03/05 00:46:17;;;;;;;9.98;3.55;;;7.00;99.90;;;;;;2036427;29;20019;-72
2023/03/05 00:47:18;;;;;;;11.63;4.00;;;7.00;99.90;;;;;;2034391;29;20107;-72
2023/03/05 00:48:19;;;;;;;8.88;3.38;;;7.00;99.90;;;;;;2030362;29;20025;-72
2023/03/05 00:49:19;;;;;;;12.25;3.45;;;7.00;99.90;;;;;;2030598;29;20035;-72
2023/03/05 00:50:20;;;;;;;12.05;3.53;;;7.00;99.90;;;;;;2037012;29;20115;-71
2023/03/05 00:51:20;;;;;;;12.27;4.10;;;7.00;99.90;;;;;;2035984;29;20492;-71
2023/03/05 00:52:21;;;;;;;13.07;4.75;;;7.00;99.90;;;;;;2035693;29;20383;-71
2023/03/05 00:53:22;;;;;;;12.95;4.38;;;7.00;99.90;;;;;;2037107;29;20151;-71
2023/03/05 00:54:22;;;;;;;14.55;5.57;;;6.90;99.90;;;;;;2036247;29;20028;-71
2023/03/05 00:55:23;;;;;;;17.15;5.75;;;6.90;99.90;;;;;;2035802;29;20110;-72
2023/03/05 00:56:23;;;;;;;11.57;4.68;;;6.90;99.90;;;;;;2037478;29;20023;-72
2023/03/05 00:57:24;;;;;;;16.13;6.38;;;6.90;99.90;;;;;;2037369;29;20499;-72
2023/03/05 00:58:24;;;;;;;12.93;5.63;;;6.90;99.90;;;;;;2036136;29;20056;-72
2023/03/05 00:59:25;;;;;;;12.95;5.05;;;6.90;99.90;;;;;;2033739;29;20096;-71
2023/03/05 01:00:25;;;;;;;11.90;4.97;;;6.90;99.90;;;;;;2035843;29;20133;-71
2023/03/05 01:01:27;;;;;;;17.55;5.43;;;6.80;99.90;;;;;;2035479;29;20035;-71
2023/03/05 01:02:28;;;;;;;14.00;5.63;;;6.80;99.90;;;;;;2036311;29;20016;-71
2023/03/05 01:03:30;;;;;;;15.20;6.00;;;6.90;99.90;;;;;;2036924;29;20031;-71
2023/03/05 01:04:30;;;;;;;15.55;5.75;;;6.80;99.90;;;;;;2037297;29;20122;-71
2023/03/05 01:05:31;;;;;;;15.88;5.10;;;6.80;99.90;;;;;;2037326;29;20476;-71
2023/03/05 01:06:32;;;;;;;13.77;5.65;;;6.80;99.90;;;;;;2034886;29;20134;-71
2023/03/05 01:07:32;;;;;;;9.68;5.05;;;6.80;99.90;;;;;;2036202;29;20082;-71
2023/03/05 01:08:34;;;;;;;15.38;6.25;;;6.80;99.90;;;;;;2037220;29;20404;-71
2023/03/05 01:09:34;;;;;;;11.65;5.60;;;6.80;99.90;;;;;;2037362;29;20035;-71
2023/03/05 01:10:35;;;;;;;14.60;5.85;;;6.80;99.90;;;;;;2034599;29;20040;-71
2023/03/05 01:11:35;;;;;;;14.45;6.07;;;6.80;99.90;;;;;;2035823;29;20028;-71
2023/03/05 01:12:36;;;;;;;12.80;5.40;;;6.80;99.90;;;;;;2038197;29;20051;-71
2023/03/05 01:13:37;;;;;;;10.35;5.45;;;6.80;99.90;;;;;;2035722;29;20048;-71
2023/03/05 01:14:37;;;;;;;18.60;5.65;;;6.70;99.90;;;;;;2037654;29;20634;-71
2023/03/05 01:15:38;;;;;;;10.48;5.63;;;6.70;99.90;;;;;;2035869;29;20107;-71
2023/03/05 01:16:38;;;;;;;17.15;6.97;;;6.70;99.90;;;;;;2027360;29;20449;-71
2023/03/05 01:17:39;;;;;;;16.08;7.22;;;6.70;99.90;;;;;;2028537;29;20028;-71
2023/03/05 01:18:40;;;;;;;17.25;6.32;;;6.70;99.90;;;;;;2036944;29;20023;-71
2023/03/05 01:19:40;;;;;;;14.00;7.72;;;6.70;99.90;;;;;;2037385;29;20059;-71
2023/03/05 01:20:41;;;;;;;15.82;6.82;;;6.80;99.90;;;;;;2033907;29;20685;-71
2023/03/05 01:21:42;;;;;;;15.02;7.32;;;6.70;99.90;;;;;;2036553;29;20028;-71
2023/03/05 01:22:42;;;;;;;16.98;8.25;;;6.80;99.90;;;;;;2036291;29;20032;-71
2023/03/05 01:23:43;;;;;;;19.38;8.02;;;6.80;99.90;;;;;;2035006;29;20039;-71
2023/03/05 01:24:43;;;;;;;12.25;7.00;;;6.80;99.90;;;;;;2037629;29;20028;-71
2023/03/05 01:25:44;;;;;;;14.68;6.95;;;6.80;99.90;;;;;;2035910;29;20043;-71
2023/03/05 01:26:44;;;;;;;16.00;5.97;;;6.80;99.90;;;;;;2035409;29;20526;-71
2023/03/05 01:27:45;;;;;;;12.30;5.20;;;6.80;99.90;;;;;;2036302;29;20067;-71
2023/03/05 01:28:46;;;;;;;16.65;6.30;;;6.80;99.90;;;;;;2036606;29;20028;-71
2023/03/05 01:29:47;;;;;;;12.18;5.10;;;6.80;99.90;;;;;;2036708;29;20481;-71
2023/03/05 01:30:48;;;;;;;14.00;4.90;;;6.90;99.90;;;;;;2036612;29;20036;-71
2023/03/05 01:31:48;;;;;;;13.38;4.45;;;6.80;99.90;;;;;;2037287;29;20451;-71
2023/03/05 01:32:49;;;;;;;15.05;4.95;;;6.80;99.90;;;;;;2036282;29;20040;-71
2023/03/05 01:33:54;;;;;;;9.75;4.53;;;6.90;99.90;;;;;;2033960;29;20734;-71
2023/03/05 01:34:54;;;;;;;11.38;4.40;;;6.90;99.90;;;;;;2035232;29;20111;-71
2023/03/05 01:35:55;;;;;;;13.60;4.60;;;6.80;99.90;;;;;;2036651;29;20043;-71
2023/03/05 01:36:55;;;;;;;11.52;4.65;;;6.80;99.90;;;;;;2036932;29;20059;-71
2023/03/05 01:37:56;;;;;;;10.57;4.63;;;6.80;99.90;;;;;;2036394;29;20130;-71
2023/03/05 01:38:56;;;;;;;9.50;4.25;;;6.80;99.90;;;;;;2036262;29;20055;-71
2023/03/05 01:39:57;;;;;;;14.93;4.97;;;6.80;99.90;;;;;;2036524;29;20024;-71
2023/03/05 01:40:57;;;;;;;12.05;4.22;;;6.70;99.90;;;;;;2036185;29;20039;-71
2023/03/05 01:41:58;;;;;;;12.95;4.63;;;6.70;99.90;;;;;;2037805;29;20432;-71
2023/03/05 01:43:05;;;;;;;10.00;4.50;;;6.70;99.90;;;;;;2036968;29;20577;-71
2023/03/05 01:44:06;;;;;;;13.05;5.53;;;6.70;99.90;;;;;;2035009;29;20043;-71
2023/03/05 01:45:09;;;;;;;16.15;4.57;;;6.70;99.90;;;;;;2037098;29;20035;-71
2023/03/05 01:46:27;;;;;;;13.50;4.50;;;6.80;99.90;;;;;;2036175;29;20036;-71
2023/03/05 01:47:27;;;;;;;15.23;4.97;;;6.70;99.90;;;;;;2036072;29;20487;-71
2023/03/05 01:48:28;;;;;;;15.32;5.50;;;6.80;99.90;;;;;;2036854;29;20433;-71
2023/03/05 01:49:37;;;;;;;13.85;4.68;;;6.70;99.90;;;;;;2027539;29;20029;-71
2023/03/05 01:50:37;;;;;;;13.80;4.55;;;6.70;99.90;;;;;;2028563;29;20029;-71
2023/03/05 01:51:44;;;;;;;14.48;4.80;;;6.70;99.90;;;;;;2036040;29;20473;-71
2023/03/05 01:52:52;;;;;;;12.73;4.47;;;6.70;99.90;;;;;;2036611;29;20039;-71
2023/03/05 01:53:56;;;;;;;13.07;4.40;;;6.70;99.90;;;;;;2034927;29;20115;-71
2023/03/05 01:55:00;;;;;;;12.55;3.95;;;6.70;99.90;;;;;;2034893;29;20471;-71
2023/03/05 01:56:00;;;;;;;10.98;4.03;;;6.70;99.90;;;;;;2036815;29;20119;-71
2023/03/05 01:57:08;;;;;;;11.90;4.28;;;6.60;99.90;;;;;;2037121;29;20034;-71
2023/03/05 01:58:12;;;;;;;11.38;4.43;;;6.60;99.90;;;;;;2035665;29;20368;-71
2023/03/05 01:59:13;;;;;;;10.15;3.92;;;6.60;99.90;;;;;;2034726;29;20024;-71
2023/03/05 02:00:26;;;;;;;14.70;4.00;;;6.60;99.90;;;;;;2036252;29;20022;-72
2023/03/05 02:01:26;;;;;;;12.05;3.90;;;6.60;99.90;;;;;;2036320;29;20035;-72
2023/03/05 02:02:27;;;;;;;11.35;4.20;;;6.60;99.90;;;;;;2036946;29;20035;-72
2023/03/05 02:03:27;;;;;;;10.48;3.97;;;6.60;99.90;;;;;;2036768;29;20027;-72
2023/03/05 02:04:39;;;;;;;9.73;4.05;;;6.60;99.90;;;;;;2036062;29;20028;-72
2023/03/05 02:05:43;;;;;;;10.18;3.63;;;6.60;99.90;;;;;;2036039;29;20477;-72
2023/03/05 02:06:44;;;;;;;9.90;3.72;;;6.60;99.90;;;;;;2037901;29;20024;-72
2023/03/05 02:07:45;;;;;;;12.38;3.80;;;6.50;99.90;;;;;;2035944;29;20036;-72
2023/03/05 02:08:46;;;;;;;11.85;3.80;;;6.60;99.90;;;;;;2035816;29;20061;-72
2023/03/05 02:09:46;;;;;;;11.10;4.00;;;6.50;99.90;;;;;;2036302;29;20057;-72
2023/03/05 02:10:54;;;;;;;13.70;5.32;;;6.50;99.90;;;;;;2037094;29;20568;-72
2023/03/05 02:11:55;;;;;;;11.27;4.78;;;6.60;99.90;;;;;;2035686;29;20598;-72
2023/03/05 02:13:03;;;;;;;11.75;4.13;;;6.60;99.90;;;;;;2035463;29;20051;-72
2023/03/05 02:14:05;;;;;;;8.38;3.80;;;6.60;99.90;;;;;;2034807;29;20031;-72
2023/03/05 02:15:06;;;;;;;12.20;4.07;;;6.60;99.90;;;;;;2036049;29;20664;-72
2023/03/05 02:16:07;;;;;;;9.55;3.80;;;6.60;99.90;;;;;;2037690;29;20122;-72
2023/03/05 02:17:09;;;;;;;10.38;4.28;;;6.60;99.90;;;;;;2036497;29;20028;-72
2023/03/05 02:18:10;;;;;;;7.20;3.83;;;6.60;99.90;;;;;;2037879;29;20015;-72
2023/03/05 02:19:12;;;;;;;8.63;3.58;;;6.70;99.90;;;;;;2038047;29;20031;-72
2023/03/05 02:20:17;;;;;;;10.70;3.60;;;6.70;99.90;;;;;;2034852;29;20024;-72
2023/03/05 02:21:27;;;;;;;8.50;3.17;;;6.70;99.90;;;;;;2035830;29;20058;-72
2023/03/05 02:22:28;;;;;;;7.85;3.13;;;6.70;99.90;;;;;;2036151;29;21483;-73
2023/03/05 02:23:32;;;;;;;8.43;2.65;;;6.70;99.90;;;;;;2034932;29;20024;-73
2023/03/05 02:24:36;;;;;;;7.82;2.75;;;6.70;99.90;;;;;;2036171;29;20023;-73
2023/03/05 02:25:37;;;;;;;7.95;2.30;;;6.70;99.90;;;;;;2036140;29;20028;-73
2023/03/05 02:26:38;;;;;;;8.82;2.80;;;6.70;99.90;;;;;;2037937;29;20027;-72
2023/03/05 02:27:41;;;;;;;10.60;3.00;;;6.70;99.90;;;;;;2034984;29;20470;-72
2023/03/05 02:28:48;;;;;;;7.32;2.05;;;6.70;99.90;;;;;;2037108;29;20020;-72
2023/03/05 02:29:49;;;;;;;9.68;2.33;;;6.70;99.90;;;;;;2035989;29;20072;-73
2023/03/05 02:30:49;;;;;;;6.32;2.60;;;6.70;99.90;;;;;;2034686;29;20038;-73
2023/03/05 02:31:50;;;;;;;5.38;2.55;;;6.70;99.90;;;;;;2036579;29;20696;-73
2023/03/05 02:32:51;;;;;;;10.38;2.72;;;6.70;99.90;;;;;;2035503;29;20083;-73
2023/03/05 02:33:52;;;;;;;9.23;2.30;;;6.70;99.90;;;;;;2037470;29;20024;-73
2023/03/05 02:34:53;;;;;;;4.45;2.22;;;6.70;99.90;;;;;;2034528;29;20070;-73
2023/03/05 02:35:53;;;;;;;7.70;2.45;;;6.70;99.90;;;;;;2035772;29;20023;-73
2023/03/05 02:36:54;;;;;;;8.77;2.80;;;6.70;99.90;;;;;;2036667;29;20023;-73
2023/03/05 02:37:55;;;;;;;8.27;2.72;;;6.70;99.90;;;;;;2036503;29;20035;-73
2023/03/05 02:38:56;;;;;;;9.98;2.63;;;6.70;99.90;;;;;;2036716;29;20019;-73
2023/03/05 02:39:56;;;;;;;10.50;3.03;;;6.70;99.90;;;;;;2035857;29;20036;-73
2023/03/05 02:40:57;;;;;;;8.85;2.67;;;6.70;99.90;;;;;;2036911;29;20475;-73
2023/03/05 02:41:57;;;;;;;10.40;2.33;;;6.70;99.90;;;;;;2036383;29;20025;-72
2023/03/05 02:42:58;;;;;;;10.55;2.30;;;6.70;99.90;;;;;;2036469;29;20032;-72
2023/03/05 02:43:58;;;;;;;7.88;2.67;;;6.70;99.90;;;;;;2035195;29;20467;-72
2023/03/05 02:45:00;;;;;;;9.30;3.20;;;6.70;99.90;;;;;;2035391;29;20387;-73
2023/03/05 02:46:00;;;;;;;8.88;2.20;;;6.70;99.90;;;;;;2036641;29;20486;-73
2023/03/05 02:47:02;;;;;;;10.88;2.75;;;6.70;99.90;;;;;;2035414;29;20377;-73
2023/03/05 02:48:02;;;;;;;7.07;2.20;;;6.70;99.90;;;;;;2035691;29;20058;-73
2023/03/05 02:49:03;;;;;;;5.20;2.08;;;6.70;99.90;;;;;;2037348;29;20027;-73
2023/03/05 02:50:05;;;;;;;6.20;1.85;;;6.70;99.90;;;;;;2035528;29;20439;-73
2023/03/05 02:51:06;;;;;;;8.57;2.58;;;6.70;99.90;;;;;;2035312;29;20460;-73
2023/03/05 02:52:07;;;;;;;7.78;2.55;;;6.60;99.90;;;;;;2036278;29;20027;-73
2023/03/05 02:53:07;;;;;;;8.95;2.63;;;6.60;99.90;;;;;;2035347;29;20056;-72
2023/03/05 02:54:08;;;;;;;8.05;2.72;;;6.60;99.90;;;;;;2035948;29;20480;-72
2023/03/05 02:55:09;;;;;;;8.00;2.40;;;6.60;99.90;;;;;;2036138;29;20035;-73
2023/03/05 02:56:10;;;;;;;5.25;2.00;;;6.50;99.90;;;;;;2037476;29;20043;-73
2023/03/05 02:57:10;;;;;;;7.88;2.17;;;6.50;99.90;;;;;;2037810;29;20024;-73
2023/03/05 02:58:11;;;;;;;8.55;2.58;;;6.50;99.90;;;;;;2035085;29;20024;-72
2023/03/05 02:59:11;;;;;;;7.63;2.42;;;6.50;99.90;;;;;;2034387;29;20518;-72
2023/03/05 03:00:12;;;;;;;9.88;2.72;;;6.50;99.90;;;;;;2034798;29;20075;-72
2023/03/05 03:01:13;;;;;;;6.68;2.35;;;6.50;99.90;;;;;;2035691;29;20403;-72
2023/03/05 03:02:14;;;;;;;6.53;2.03;;;6.50;99.90;;;;;;2037154;29;20032;-72
2023/03/05 03:03:14;;;;;;;8.70;2.33;;;6.50;99.90;;;;;;2035892;29;20075;-72
2023/03/05 03:04:15;;;;;;;7.13;2.65;;;6.50;99.90;;;;;;2036648;29;20475;-72
2023/03/05 03:05:15;;;;;;;10.88;2.72;;;6.50;99.90;;;;;;2036961;29;20622;-73
2023/03/05 03:06:16;;;;;;;7.85;2.92;;;6.50;99.90;;;;;;2036943;29;20019;-73
2023/03/05 03:07:17;;;;;;;9.65;2.50;;;6.50;99.90;;;;;;2036601;29;20443;-72
2023/03/05 03:08:18;;;;;;;7.20;2.70;;;6.50;99.90;;;;;;2032953;29;20048;-72
2023/03/05 03:09:18;;;;;;;7.43;2.63;;;6.50;99.90;;;;;;2036458;29;20110;-72
2023/03/05 03:10:19;;;;;;;5.25;2.72;;;6.50;99.90;;;;;;2034166;29;20035;-72
2023/03/05 03:11:20;;;;;;;8.32;2.70;;;6.50;99.90;;;;;;2036553;29;20494;-72
2023/03/05 03:12:22;;;;;;;7.85;2.80;;;6.50;99.90;;;;;;2034459;29;20035;-72
2023/03/05 03:13:24;;;;;;;8.95;3.08;;;6.50;99.90;;;;;;2037187;29;20067;-72
2023/03/05 03:14:24;;;;;;;8.90;3.25;;;6.50;99.90;;;;;;2036423;29;20016;-72
2023/03/05 03:15:25;;;;;;;10.43;2.72;;;6.50;99.90;;;;;;2035756;29;20020;-72
2023/03/05 03:16:25;;;;;;;9.40;3.25;;;6.50;99.90;;;;;;2037395;29;20027;-72
2023/03/05 03:17:26;;;;;;;7.78;2.67;;;6.50;99.90;;;;;;2033942;29;20028;-72
2023/03/05 03:18:27;;;;;;;6.47;2.80;;;6.50;99.90;;;;;;2034288;29;20031;-72
2023/03/05 03:19:28;;;;;;;7.72;2.97;;;6.50;99.90;;;;;;2025547;29;20563;-72
2023/03/05 03:20:28;;;;;;;9.68;2.80;;;6.50;99.90;;;;;;2027141;29;20555;-72
2023/03/05 03:21:29;;;;;;;10.15;3.13;;;6.50;99.90;;;;;;2028639;29;20044;-72
2023/03/05 03:22:29;;;;;;;9.07;3.15;;;6.50;99.90;;;;;;2035758;29;20587;-72
2023/03/05 03:23:30;;;;;;;8.02;2.63;;;6.50;99.90;;;;;;2036582;29;20079;-72
2023/03/05 03:24:32;;;;;;;13.65;3.58;;;6.50;99.90;;;;;;2035127;29;20039;-72
2023/03/05 03:25:33;;;;;;;9.25;2.63;;;6.50;99.90;;;;;;2034387;29;20064;-72
2023/03/05 03:26:34;;;;;;;9.52;2.97;;;6.50;99.90;;;;;;2035805;29;20028;-72
2023/03/05 03:27:34;;;;;;;11.48;3.63;;;6.50;99.90;;;;;;2035351;29;20032;-72
2023/03/05 03:28:35;;;;;;;11.20;3.40;;;6.50;99.90;;;;;;2034540;29;20016;-73
2023/03/05 03:29:36;;;;;;;9.50;3.22;;;6.50;99.90;;;;;;2035774;29;20488;-73
2023/03/05 03:30:36;;;;;;;8.23;2.75;;;6.50;99.90;;;;;;2036033;29;20041;-73
2023/03/05 03:31:39;;;;;;;13.00;4.00;;;6.50;99.90;;;;;;2036402;29;20451;-73
2023/03/05 03:32:40;;;;;;;10.32;3.55;;;6.50;99.90;;;;;;2037521;29;20101;-72
2023/03/05 03:33:41;;;;;;;10.38;3.22;;;6.50;99.90;;;;;;2035683;29;20083;-72
2023/03/05 03:34:43;;;;;;;10.48;3.50;;;6.50;99.90;;;;;;2035619;29;20204;-72
2023/03/05 03:35:45;;;;;;;10.52;3.72;;;6.40;99.90;;;;;;2035854;29;20024;-73
2023/03/05 03:36:47;;;;;;;10.50;3.55;;;6.40;99.90;;;;;;2034311;29;20021;-73
2023/03/05 03:37:48;;;;;;;12.20;3.38;;;6.40;99.90;;;;;;2038752;29;20024;-72
2023/03/05 03:38:48;;;;;;;8.32;3.38;;;6.50;99.90;;;;;;2037154;29;20062;-72
2023/03/05 03:39:49;;;;;;;10.73;3.78;;;6.50;99.90;;;;;;2036204;29;20422;-72
2023/03/05 03:40:49;;;;;;;9.05;3.03;;;6.40;99.90;;;;;;2036230;29;20031;-72
2023/03/05 03:41:51;;;;;;;12.75;3.60;;;6.40;99.90;;;;;;2036015;29;20107;-72
2023/03/05 03:42:52;;;;;;;11.63;3.22;;;6.40;99.90;;;;;;2034053;29;20172;-72
2023/03/05 03:43:53;;;;;;;10.50;3.90;;;6.40;99.90;;;;;;2036212;29;20064;-72
2023/03/05 03:44:53;;;;;;;10.48;3.63;;;6.40;99.90;;;;;;2035732;29;20049;-72
2023/03/05 03:45:54;;;;;;;12.68;3.90;;;6.40;99.90;;;;;;2034733;29;20124;-72
2023/03/05 03:46:54;;;;;;;10.88;3.50;;;6.30;99.90;;;;;;2036226;29;20042;-72
2023/03/05 03:47:55;;;;;;;12.60;4.47;;;6.30;99.90;;;;;;2033732;29;20034;-73
2023/03/05 03:48:55;;;;;;;10.82;4.47;;;6.40;99.90;;;;;;2033313;29;20027;-72
2023/03/05 03:49:57;;;;;;;12.77;4.18;;;6.30;99.90;;;;;;2035682;29;20475;-72
2023/03/05 03:50:58;;;;;;;9.57;4.03;;;6.30;99.90;;;;;;2034455;29;20040;-72
2023/03/05 03:51:59;;;;;;;10.27;4.07;;;6.30;99.90;;;;;;2036040;29;20047;-72
2023/03/05 03:53:00;;;;;;;10.38;4.07;;;6.30;99.90;;;;;;2035451;29;20055;-72
2023/03/05 03:54:00;;;;;;;8.70;4.32;;;6.30;99.90;;;;;;2035348;29;20111;-72
2023/03/05 03:55:01;;;;;;;12.35;4.43;;;6.30;99.90;;;;;;2036352;29;20043;-72
2023/03/05 03:56:02;;;;;;;10.90;4.18;;;6.40;99.90;;;;;;2035643;29;20048;-72
2023/03/05 03:57:03;;;;;;;11.88;4.55;;;6.40;99.90;;;;;;2035268;29;20102;-72
2023/03/05 03:58:03;;;;;;;9.93;4.43;;;6.40;99.90;;;;;;2035981;29;20017;-72
2023/03/05 03:59:04;;;;;;;9.55;4.35;;;6.40;99.90;;;;;;2035169;29;20027;-73
2023/03/05 04:00:06;;;;;;;15.35;4.95;;;6.40;99.90;;;;;;2033269;29;20076;-72
2023/03/05 04:01:06;;;;;;;9.77;4.10;;;6.40;99.90;;;;;;2035510;29;20036;-72
2023/03/05 04:02:07;;;;;;;10.40;4.28;;;6.40;99.90;;;;;;2035209;29;20028;-72
2023/03/05 04:03:08;;;;;;;10.02;4.03;;;6.40;99.90;;;;;;2028548;29;20028;-72
2023/03/05 04:04:11;;;;;;;10.15;4.22;;;6.40;99.90;;;;;;2027482;29;20039;-73
2023/03/05 04:05:11;;;;;;;12.80;4.50;;;6.40;99.90;;;;;;2034426;29;20042;-73
2023/03/05 04:06:12;;;;;;;11.38;4.60;;;6.40;99.90;;;;;;2034926;29;20035;-73
2023/03/05 04:07:13;;;;;;;17.55;5.30;;;6.40;99.90;;;;;;2034645;29;20024;-72
2023/03/05 04:08:14;;;;;;;14.68;4.78;;;6.40;99.90;;;;;;2035740;29;20106;-72
2023/03/05 04:09:14;;;;;;;12.90;4.30;;;6.40;99.90;;;;;;2034516;29;20032;-72
2023/03/05 04:10:15;;;;;;;10.98;4.45;;;6.40;99.90;;;;;;2035777;29;20039;-72
2023/03/05 04:11:18;;;;;;;11.63;4.53;;;6.40;99.90;;;;;;2036748;29;20030;-72
2023/03/05 04:12:18;;;;;;;12.15;4.88;;;6.40;99.90;;;;;;2035993;29;20023;-72
2023/03/05 04:13:19;;;;;;;12.57;4.88;;;6.40;99.90;;;;;;2036158;29;20026;-72
2023/03/05 04:14:19;;;;;;;10.45;4.38;;;6.50;99.90;;;;;;2034595;29;20028;-72
2023/03/05 04:15:20;;;;;;;14.68;5.05;;;6.50;99.90;;;;;;2035844;29;20079;-72
2023/03/05 04:16:21;;;;;;;8.70;3.70;;;6.50;99.90;;;;;;2034639;29;20040;-72
2023/03/05 04:17:22;;;;;;;14.88;5.05;;;6.40;99.90;;;;;;2037629;29;20368;-73
2023/03/05 04:18:23;;;;;;;9.70;4.43;;;6.50;99.90;;;;;;2036113;29;20127;-72
2023/03/05 04:19:23;;;;;;;10.63;4.50;;;6.50;99.90;;;;;;2035295;29;20131;-72
2023/03/05 04:20:24;;;;;;;10.48;4.38;;;6.50;99.90;;;;;;2035556;29;20031;-72
2023/03/05 04:21:24;;;;;;;12.93;4.70;;;6.40;99.90;;;;;;2037855;29;20075;-73
2023/03/05 04:22:25;;;;;;;12.65;4.40;;;6.50;99.90;;;;;;2037684;29;20079;-72
2023/03/05 04:23:25;;;;;;;12.10;4.38;;;6.40;99.90;;;;;;2036472;29;20749;-72
2023/03/05 04:24:26;;;;;;;11.43;4.65;;;6.40;99.90;;;;;;2035990;29;20056;-72
2023/03/05 04:25:27;;;;;;;11.63;4.90;;;6.40;99.90;;;;;;2037030;29;20337;-72
2023/03/05 04:26:27;;;;;;;10.55;4.70;;;6.40;99.90;;;;;;2036311;29;20028;-72
2023/03/05 04:27:28;;;;;;;11.18;4.45;;;6.40;99.90;;;;;;2036613;29;20031;-73
2023/03/05 04:28:28;;;;;;;10.75;4.45;;;6.30;99.90;;;;;;2029565;29;20031;-73
2023/03/05 04:29:29;;;;;;;12.75;5.18;;;6.30;99.90;;;;;;2027702;29;20031;-72
2023/03/05 04:30:30;;;;;;;12.70;4.80;;;6.30;99.90;;;;;;2035772;29;20439;-72
2023/03/05 04:31:30;;;;;;;11.50;4.85;;;6.30;99.90;;;;;;2038315;29;20032;-72
2023/03/05 04:32:31;;;;;;;10.98;5.57;;;6.30;99.90;;;;;;2037680;29;20028;-72
2023/03/05 04:33:32;;;;;;;12.13;5.70;;;6.30;99.90;;;;;;2037794;29;20059;-72
2023/03/05 04:34:34;;;;;;;13.35;5.13;;;6.30;99.90;;;;;;2037800;29;20107;-72
2023/03/05 04:35:34;;;;;;;12.52;5.10;;;6.30;99.90;;;;;;2037887;29;20075;-72
2023/03/05 04:36:35;;;;;;;9.75;4.80;;;6.30;99.90;;;;;;2037432;29;20102;-72
2023/03/05 04:37:36;;;;;;;13.23;5.15;;;6.30;99.90;;;;;;2038344;29;20083;-72
2023/03/05 04:38:37;;;;;;;11.80;5.30;;;6.30;99.90;;;;;;2037060;29;20016;-72
2023/03/05 04:39:37;;;;;;;10.20;5.22;;;6.30;99.90;;;;;;2036597;29;20098;-72
2023/03/05 04:40:38;;;;;;;12.85;5.35;;;6.30;99.90;;;;;;2038044;29;20042;-72
2023/03/05 04:41:39;;;;;;;8.60;4.95;;;6.30;99.90;;;;;;2037527;29;20028;-72
2023/03/05 04:42:39;;;;;;;12.00;5.13;;;6.30;99.90;;;;;;2036387;29;20024;-72
2023/03/05 04:43:40;;;;;;;12.18;4.90;;;6.30;99.90;;;;;;2037957;29;20237;-72
2023/03/05 04:44:40;;;;;;;14.20;4.90;;;6.30;99.90;;;;;;2037392;29;20893;-72
2023/03/05 04:45:42;;;;;;;9.38;5.22;;;6.30;99.90;;;;;;2036871;29;20028;-72
2023/03/05 04:46:43;;;;;;;12.07;5.05;;;6.30;99.90;;;;;;2037675;29;20031;-72
2023/03/05 04:47:43;;;;;;;15.27;5.30;;;6.20;99.90;;;;;;2036549;29;20040;-72
2023/03/05 04:48:44;;;;;;;10.23;4.43;;;6.20;99.90;;;;;;2037190;29;20068;-72
2023/03/05 04:49:45;;;;;;;14.80;5.35;;;6.20;99.90;;;;;;2037571;29;20156;-72
2023/03/05 04:50:45;;;;;;;12.15;5.22;;;6.20;99.90;;;;;;2036934;29;20656;-72
2023/03/05 04:51:46;;;;;;;10.40;4.97;;;6.20;99.90;;;;;;2038168;29;20038;-72
2023/03/05 04:52:46;;;;;;;8.95;4.90;;;6.20;99.90;;;;;;2033672;29;20030;-72
2023/03/05 04:53:47;;;;;;;12.52;5.45;;;6.20;99.90;;;;;;2036583;29;20115;-72
2023/03/05 04:54:48;;;;;;;9.55;4.80;;;6.20;99.90;;;;;;2036137;29;20122;-72
2023/03/05 04:55:55;;;;;;;11.95;5.15;;;6.20;99.90;;;;;;2036077;29;20043;-72
2023/03/05 04:56:55;;;;;;;12.25;5.28;;;6.20;99.90;;;;;;2037071;29;20087;-72
2023/03/05 04:57:56;;;;;;;10.73;4.70;;;6.20;99.90;;;;;;2036842;29;20106;-72
2023/03/05 04:58:57;;;;;;;15.60;5.55;;;6.20;99.90;;;;;;2035906;29;20484;-72
2023/03/05 04:59:58;;;;;;;9.05;4.82;;;6.30;99.90;;;;;;2037498;29;20024;-72
2023/03/05 05:01:03;;;;;;;11.00;5.90;;;6.30;99.90;;;;;;2028678;29;20036;-72
2023/03/05 05:02:04;;;;;;;12.30;5.63;;;6.20;99.90;;;;;;2022128;29;20037;-72
2023/03/05 05:03:04;;;;;;;14.38;6.03;;;6.20;99.90;;;;;;2030903;29;20131;-72
2023/03/05 05:04:05;;;;;;;10.50;4.72;;;6.20;99.90;;;;;;2037704;29;20047;-72
2023/03/05 05:05:06;;;;;;;11.80;5.00;;;6.30;99.90;;;;;;2036716;29;20495;-72
2023/03/05 05:06:06;;;;;;;11.15;5.85;;;6.30;99.90;;;;;;2037223;29;20031;-72
2023/03/05 05:07:07;;;;;;;11.20;5.53;;;6.20;99.90;;;;;;2035800;29;20028;-72
2023/03/05 05:08:08;;;;;;;10.48;4.97;;;6.30;99.90;;;;;;2037210;29;20028;-72
2023/03/05 05:09:09;;;;;;;12.52;5.22;;;6.30;99.90;;;;;;2036439;29;20039;-72
2023/03/05 05:10:11;;;;;;;9.63;5.90;;;6.30;99.90;;;;;;2036973;29;20035;-72
2023/03/05 05:11:13;;;;;;;17.15;6.40;;;6.30;99.90;;;;;;2037466;29;20035;-72
2023/03/05 05:12:13;;;;;;;9.10;5.03;;;6.30;99.90;;;;;;2037499;29;20024;-72
2023/03/05 05:13:14;;;;;;;12.75;6.38;;;6.30;99.90;;;;;;2035467;29;20021;-73
2023/03/05 05:14:15;;;;;;;12.68;5.65;;;6.30;99.90;;;;;;2035706;29;20189;-73
2023/03/05 05:15:15;;;;;;;10.50;4.57;;;6.30;99.90;;;;;;2036154;29;20019;-72
2023/03/05 05:16:16;;;;;;;6.47;4.38;;;6.20;99.90;;;;;;2036829;29;20027;-72
2023/03/05 05:17:17;;;;;;;9.65;4.00;;;6.20;99.90;;;;;;2038295;29;20075;-72
2023/03/05 05:18:17;;;;;;;10.73;4.05;;;6.20;99.90;;;;;;2037797;29;20194;-72
2023/03/05 05:19:18;;;;;;;9.02;3.85;;;6.20;99.90;;;;;;2035554;29;20024;-72
2023/03/05 05:20:19;;;;;;;7.22;3.60;;;6.20;99.90;;;;;;2036052;29;20036;-72